createdAt,value
2022-08-27T00:02:04.336Z,99636.84
2022-08-27T00:04:39.478Z,99637.95
2022-08-27T00:07:13.731Z,99638.91
2022-08-27T00:09:47.766Z,99638.94
2022-08-27T00:12:22.566Z,99644.17
2022-08-27T00:14:56.111Z,99649.44
2022-08-27T00:17:29.677Z,99639.90
2022-08-27T00:20:03.118Z,99646.34
2022-08-27T00:22:36.449Z,99632.32
2022-08-27T00:25:11.548Z,99627.73
2022-08-27T00:27:45.227Z,99637.62
2022-08-27T00:30:21.706Z,99644.19
2022-08-27T00:32:57.207Z,99638.34
2022-08-27T00:35:30.615Z,99636.73
2022-08-27T00:38:05.509Z,99647.03
2022-08-27T00:40:39.604Z,99641.59
2022-08-27T00:43:13.074Z,99646.28
2022-08-27T00:45:48.324Z,99646.41
2022-08-27T00:48:24.661Z,99651.00
2022-08-27T00:50:59.108Z,99643.81
2022-08-27T00:53:37.529Z,99647.16
2022-08-27T00:56:15.716Z,99654.24
2022-08-27T00:58:51.884Z,99647.78
2022-08-27T01:01:28.355Z,99649.39
2022-08-27T01:04:05.961Z,99639.33
2022-08-27T01:06:38.912Z,99648.01
2022-08-27T01:09:15.104Z,99644.66
2022-08-27T01:11:50.298Z,99649.63
2022-08-27T01:14:24.177Z,99649.45
2022-08-27T01:16:59.158Z,99651.98
2022-08-27T01:19:35.455Z,99651.58
2022-08-27T01:22:21.911Z,99651.13
2022-08-27T01:24:50.779Z,99650.58
2022-08-27T01:27:27.326Z,99652.63
2022-08-27T01:30:01.030Z,99652.06
2022-08-27T01:32:37.137Z,99650.68
2022-08-27T01:35:13.995Z,99657.52
2022-08-27T01:37:52.274Z,99656.46
2022-08-27T01:40:25.752Z,99659.77
2022-08-27T01:43:00.635Z,99660.25
2022-08-27T01:45:35.905Z,99664.08
2022-08-27T01:48:10.174Z,99667.80
2022-08-27T01:50:44.973Z,99668.89
2022-08-27T01:53:20.786Z,99668.13
2022-08-27T01:55:55.502Z,99675.13
2022-08-27T01:58:31.019Z,99673.64
2022-08-27T02:01:08.221Z,99668.23
2022-08-27T02:03:43.283Z,99669.87
2022-08-27T02:06:17.177Z,99667.98
2022-08-27T02:08:50.826Z,99665.70
2022-08-27T02:11:24.719Z,99663.26
2022-08-27T02:13:58.115Z,99664.45
2022-08-27T02:16:32.583Z,99664.11
2022-08-27T02:19:07.241Z,99665.78
2022-08-27T02:21:42.640Z,99669.44
2022-08-27T02:24:16.127Z,99675.80
2022-08-27T02:26:49.617Z,99672.28
2022-08-27T02:29:23.285Z,99673.48
2022-08-27T02:31:57.109Z,99674.77
2022-08-27T02:34:30.934Z,99670.63
2022-08-27T02:37:04.869Z,99675.25
2022-08-27T02:39:41.256Z,99681.16
2022-08-27T02:42:14.359Z,99678.25
2022-08-27T02:44:48.521Z,99682.11
2022-08-27T02:47:22.422Z,99679.70
2022-08-27T02:49:56.531Z,99675.36
2022-08-27T02:52:31.650Z,99669.73
2022-08-27T02:55:06.447Z,99676.48
2022-08-27T02:57:42.414Z,99690.03
2022-08-27T03:00:19.717Z,99681.22
2022-08-27T03:02:53.898Z,99686.09
2022-08-27T03:05:28.713Z,99682.52
2022-08-27T03:08:03.729Z,99690.23
2022-08-27T03:10:37.518Z,99686.03
2022-08-27T03:13:11.105Z,99693.55
2022-08-27T03:15:44.803Z,99693.67
2022-08-27T03:18:22.030Z,99692.76
2022-08-27T03:20:57.683Z,99690.63
2022-08-27T03:23:34.233Z,99685.75
2022-08-27T03:26:10.765Z,99692.36
2022-08-27T03:28:44.443Z,99687.73
2022-08-27T03:31:21.779Z,99686.72
2022-08-27T03:33:56.541Z,99687.52
2022-08-27T03:36:31.279Z,99703.56
2022-08-27T03:39:05.254Z,99691.92
2022-08-27T03:41:45.462Z,99692.69
2022-08-27T03:44:21.343Z,99688.34
2022-08-27T03:46:51.767Z,99691.92
2022-08-27T03:49:25.618Z,99690.30
2022-08-27T03:51:59.697Z,99692.69
2022-08-27T03:54:49.331Z,99693.54
2022-08-27T03:57:25.808Z,99683.02
2022-08-27T03:59:59.882Z,99689.09
2022-08-27T04:02:34.837Z,99689.89
2022-08-27T04:05:10.781Z,99682.50
2022-08-27T04:07:47.175Z,99689.25
2022-08-27T04:10:21.909Z,99682.02
2022-08-27T04:12:55.385Z,99689.02
2022-08-27T04:15:30.149Z,99689.66
2022-08-27T04:18:03.812Z,99690.18
2022-08-27T04:20:37.937Z,99697.47
2022-08-27T04:23:11.623Z,99699.99
2022-08-27T04:25:46.461Z,99712.57
2022-08-27T04:28:20.229Z,99717.52
2022-08-27T04:30:54.014Z,99708.23
2022-08-27T04:33:27.796Z,99714.00
2022-08-27T04:36:02.646Z,99704.38
2022-08-27T04:38:37.224Z,99712.78
2022-08-27T04:41:24.793Z,99709.34
2022-08-27T04:43:57.793Z,99710.03
2022-08-27T04:46:33.478Z,99710.23
2022-08-27T04:49:10.735Z,99704.58
2022-08-27T04:51:44.772Z,99705.68
2022-08-27T04:54:19.367Z,99704.27
2022-08-27T04:56:54.877Z,99701.09
2022-08-27T04:59:28.608Z,99704.31
2022-08-27T05:02:04.575Z,99703.80
2022-08-27T05:04:40.552Z,99703.85
2022-08-27T05:07:13.927Z,99699.27
2022-08-27T05:09:47.450Z,99701.43
2022-08-27T05:12:21.002Z,99695.40
2022-08-27T05:14:55.653Z,99686.22
2022-08-27T05:17:30.981Z,99697.97
2022-08-27T05:20:05.666Z,99695.75
2022-08-27T05:22:39.859Z,99692.23
2022-08-27T05:25:13.933Z,99696.02
2022-08-27T05:27:47.232Z,99700.84
2022-08-27T05:30:21.730Z,99700.19
2022-08-27T05:32:57.541Z,99700.69
2022-08-27T05:35:32.926Z,99699.45
2022-08-27T05:38:06.718Z,99700.92
2022-08-27T05:40:42.056Z,99701.34
2022-08-27T05:43:16.456Z,99705.48
2022-08-27T05:45:52.870Z,99702.94
2022-08-27T05:48:26.816Z,99708.16
2022-08-27T05:51:02.440Z,99694.75
2022-08-27T05:53:36.307Z,99693.18
2022-08-27T05:56:14.580Z,99694.63
2022-08-27T05:59:05.808Z,99691.56
2022-08-27T06:01:43.626Z,99709.11
2022-08-27T06:04:18.962Z,99703.20
2022-08-27T06:06:53.452Z,99697.24
2022-08-27T06:09:29.042Z,99702.53
2022-08-27T06:12:04.323Z,99698.34
2022-08-27T06:14:38.956Z,99714.10
2022-08-27T06:17:12.464Z,99706.37
2022-08-27T06:19:45.879Z,99698.36
2022-08-27T06:22:19.802Z,99702.75
2022-08-27T06:24:53.923Z,99702.89
2022-08-27T06:27:27.509Z,99698.56
2022-08-27T06:30:01.273Z,99700.81
2022-08-27T06:32:34.816Z,99699.06
2022-08-27T06:35:09.955Z,99703.25
2022-08-27T06:37:43.176Z,99699.25
2022-08-27T06:40:16.588Z,99696.20
2022-08-27T06:42:49.876Z,99702.84
2022-08-27T06:45:23.366Z,99697.25
2022-08-27T06:47:57.699Z,99695.19
2022-08-27T06:50:31.367Z,99685.33
2022-08-27T06:53:04.953Z,99691.58
2022-08-27T06:55:45.473Z,99694.47
2022-08-27T06:58:20.667Z,99691.00
2022-08-27T07:00:54.247Z,99685.00
2022-08-27T07:03:27.999Z,99682.04
2022-08-27T07:06:08.049Z,99685.79
2022-08-27T07:08:42.255Z,99692.45
2022-08-27T07:11:17.649Z,99687.84
2022-08-27T07:13:52.107Z,99691.92
2022-08-27T07:16:27.886Z,99691.56
2022-08-27T07:19:04.280Z,99692.03
2022-08-27T07:21:37.183Z,99685.94
2022-08-27T07:24:12.544Z,99693.34
2022-08-27T07:26:47.117Z,99701.61
2022-08-27T07:29:20.766Z,99691.05
2022-08-27T07:31:54.354Z,99682.27
2022-08-27T07:34:28.206Z,99684.08
2022-08-27T07:37:01.714Z,99687.13
2022-08-27T07:39:35.243Z,99684.58
2022-08-27T07:42:27.000Z,99690.75
2022-08-27T07:45:00.380Z,99689.52
2022-08-27T07:47:35.934Z,99686.59
2022-08-27T07:50:11.491Z,99688.00
2022-08-27T07:52:44.989Z,99690.75
2022-08-27T07:55:19.196Z,99688.77
2022-08-27T07:57:52.987Z,99681.13
2022-08-27T08:00:28.365Z,99689.71
2022-08-27T08:03:02.538Z,99688.31
2022-08-27T08:05:36.179Z,99688.47
2022-08-27T08:08:09.566Z,99687.94
2022-08-27T08:10:43.752Z,99680.73
2022-08-27T08:13:18.075Z,99687.64
2022-08-27T08:15:51.774Z,99685.78
2022-08-27T08:18:27.242Z,99685.84
2022-08-27T08:21:04.141Z,99681.74
2022-08-27T08:23:38.671Z,99684.22
2022-08-27T08:26:13.611Z,99685.93
2022-08-27T08:28:47.865Z,99682.19
2022-08-27T08:31:21.799Z,99677.19
2022-08-27T08:33:55.582Z,99680.00
2022-08-27T08:36:29.183Z,99669.74
2022-08-27T08:39:03.499Z,99672.98
2022-08-27T08:41:43.053Z,99672.44
2022-08-27T08:44:20.500Z,99673.33
2022-08-27T08:46:56.777Z,99665.44
2022-08-27T08:49:33.237Z,99672.45
2022-08-27T08:52:12.520Z,99669.28
2022-08-27T08:54:48.138Z,99668.34
2022-08-27T08:57:26.823Z,99669.55
2022-08-27T09:00:03.805Z,99660.80
2022-08-27T09:02:37.316Z,99664.53
2022-08-27T09:05:12.021Z,99668.64
2022-08-27T09:07:49.042Z,99657.83
2022-08-27T09:10:25.815Z,99661.60
2022-08-27T09:13:02.512Z,99660.39
2022-08-27T09:15:38.319Z,99653.75
2022-08-27T09:18:14.320Z,99653.18
2022-08-27T09:20:48.334Z,99644.15
2022-08-27T09:23:25.571Z,99656.82
2022-08-27T09:25:59.129Z,99653.00
2022-08-27T09:28:50.229Z,99653.45
2022-08-27T09:31:24.303Z,99656.14
2022-08-27T09:33:58.259Z,99662.13
2022-08-27T09:36:31.870Z,99651.43
2022-08-27T09:39:07.504Z,99652.66
2022-08-27T09:41:45.405Z,99646.12
2022-08-27T09:44:23.175Z,99652.66
2022-08-27T09:46:59.862Z,99650.77
2022-08-27T09:49:37.052Z,99648.03
2022-08-27T09:52:11.982Z,99649.56
2022-08-27T09:54:48.324Z,99635.00
2022-08-27T09:57:28.747Z,99643.25
2022-08-27T10:00:06.029Z,99641.39
2022-08-27T10:02:50.911Z,99638.91
2022-08-27T10:05:30.508Z,99645.89
2022-08-27T10:08:07.871Z,99634.39
2022-08-27T10:10:46.964Z,99640.93
2022-08-27T10:13:23.674Z,99646.16
2022-08-27T10:16:06.524Z,99642.66
2022-08-27T10:18:45.060Z,99646.18
2022-08-27T10:21:23.277Z,99645.23
2022-08-27T10:24:03.956Z,99646.03
2022-08-27T10:26:40.514Z,99645.78
2022-08-27T10:29:16.708Z,99640.70
2022-08-27T10:31:50.478Z,99637.55
2022-08-27T10:34:29.220Z,99629.79
2022-08-27T10:37:09.457Z,99629.42
2022-08-27T10:39:56.635Z,99633.25
2022-08-27T10:42:32.882Z,99635.07
2022-08-27T10:45:26.661Z,99630.41
2022-08-27T10:47:59.966Z,99626.93
2022-08-27T10:50:37.684Z,99625.19
2022-08-27T10:53:14.738Z,99630.23
2022-08-27T10:55:52.521Z,99622.61
2022-08-27T10:58:31.473Z,99616.92
2022-08-27T11:01:08.664Z,99620.02
2022-08-27T11:03:44.851Z,99606.52
2022-08-27T11:06:18.629Z,99611.38
2022-08-27T11:08:55.911Z,99613.09
2022-08-27T11:14:13.868Z,99610.87
2022-08-27T11:16:51.784Z,99606.77
2022-08-27T11:19:29.220Z,99605.43
2022-08-27T11:22:08.083Z,99603.73
2022-08-27T11:24:46.085Z,99600.38
2022-08-27T11:27:19.701Z,99603.31
2022-08-27T11:30:00.252Z,99601.81
2022-08-27T11:32:34.091Z,99600.19
2022-08-27T11:35:10.652Z,99598.09
2022-08-27T11:37:52.324Z,99597.45
2022-08-27T11:40:38.463Z,99593.59
2022-08-27T11:43:16.271Z,99598.36
2022-08-27T11:45:59.401Z,99590.23
2022-08-27T11:48:37.803Z,99600.50
2022-08-27T11:51:18.903Z,99585.98
2022-08-27T11:54:01.954Z,99582.69
2022-08-27T11:56:42.579Z,99580.15
2022-08-27T11:59:24.955Z,99586.66
2022-08-27T12:02:01.135Z,99578.12
2022-08-27T12:04:40.040Z,99574.89
2022-08-27T12:07:31.942Z,99569.59
2022-08-27T12:13:21.731Z,99567.38
2022-08-27T12:16:01.817Z,99563.61
2022-08-27T12:19:01.347Z,99567.05
2022-08-27T12:21:44.690Z,99570.59
2022-08-27T12:24:25.701Z,99569.88
2022-08-27T12:27:01.089Z,99567.25
2022-08-27T12:29:44.155Z,99562.69
2022-08-27T12:32:25.099Z,99556.84
2022-08-27T12:35:03.516Z,99557.67
2022-08-27T12:37:40.603Z,99562.14
2022-08-27T12:40:22.987Z,99551.08
2022-08-27T12:43:07.328Z,99552.14
2022-08-27T12:45:48.876Z,99546.20
2022-08-27T12:48:25.416Z,99542.86
2022-08-27T12:51:02.282Z,99550.19
2022-08-27T12:53:38.603Z,99551.09
2022-08-27T12:56:29.882Z,99547.11
2022-08-27T12:59:10.964Z,99543.05
2022-08-27T13:01:52.203Z,99535.67
2022-08-27T13:04:28.958Z,99521.25
2022-08-27T13:07:03.127Z,99528.13
2022-08-27T13:09:38.996Z,99534.22
2022-08-27T13:12:20.053Z,99535.05
2022-08-27T13:14:54.224Z,99537.06
2022-08-27T13:17:29.694Z,99536.78
2022-08-27T13:20:03.615Z,99539.21
2022-08-27T13:22:40.333Z,99533.00
2022-08-27T13:25:25.240Z,99541.55
2022-08-27T13:28:03.608Z,99539.77
2022-08-27T13:30:39.390Z,99541.48
2022-08-27T13:33:16.420Z,99542.07
2022-08-27T13:35:51.068Z,99544.22
2022-08-27T13:38:25.949Z,99535.48
2022-08-27T13:41:02.656Z,99539.63
2022-08-27T13:43:39.430Z,99537.72
2022-08-27T13:46:15.789Z,99537.25
2022-08-27T13:48:52.302Z,99534.92
2022-08-27T13:51:30.435Z,99538.72
2022-08-27T13:54:16.166Z,99534.64
2022-08-27T13:57:07.928Z,99533.80
2022-08-27T13:59:43.299Z,99526.87
2022-08-27T14:02:28.404Z,99537.72
2022-08-27T14:05:13.128Z,99534.67
2022-08-27T14:07:48.785Z,99536.73
2022-08-27T14:13:25.654Z,99531.38
2022-08-27T14:16:00.831Z,99530.89
2022-08-27T14:21:13.423Z,99526.45
2022-08-27T14:23:47.281Z,99527.22
2022-08-27T14:26:21.141Z,99524.49
2022-08-27T14:28:55.617Z,99526.79
2022-08-27T14:31:29.688Z,99526.20
2022-08-27T14:34:03.321Z,99516.42
2022-08-27T14:36:39.441Z,99516.63
2022-08-27T14:39:14.417Z,99517.58
2022-08-27T14:41:48.467Z,99523.38
2022-08-27T14:44:23.602Z,99518.58
2022-08-27T14:46:58.825Z,99519.22
2022-08-27T14:49:35.810Z,99524.81
2022-08-27T14:52:10.820Z,99527.13
2022-08-27T14:54:45.135Z,99523.44
2022-08-27T14:57:19.530Z,99523.58
2022-08-27T14:59:53.240Z,99518.95
2022-08-27T15:02:26.802Z,99517.02
2022-08-27T15:05:00.480Z,99518.03
2022-08-27T15:07:35.516Z,99516.84
2022-08-27T15:10:12.135Z,99515.48
2022-08-27T15:12:46.410Z,99507.01
2022-08-27T15:15:19.945Z,99504.09
2022-08-27T15:17:53.713Z,99515.40
2022-08-27T15:20:27.414Z,99516.77
2022-08-27T15:23:01.215Z,99515.30
2022-08-27T15:25:35.440Z,99519.48
2022-08-27T15:28:09.063Z,99511.09
2022-08-27T15:30:42.588Z,99514.39
2022-08-27T15:33:17.551Z,99519.44
2022-08-27T15:35:51.474Z,99501.31
2022-08-27T15:38:28.674Z,99512.65
2022-08-27T15:41:04.877Z,99510.92
2022-08-27T15:43:38.557Z,99507.47
2022-08-27T15:46:12.246Z,99510.52
2022-08-27T15:48:46.206Z,99503.76
2022-08-27T15:51:22.224Z,99508.02
2022-08-27T15:53:56.381Z,99505.19
2022-08-27T15:56:34.474Z,99512.27
2022-08-27T15:59:05.917Z,99504.84
2022-08-27T16:01:40.707Z,99502.94
2022-08-27T16:04:16.812Z,99491.23
2022-08-27T16:06:50.517Z,99498.55
2022-08-27T16:09:24.338Z,99504.11
2022-08-27T16:11:58.563Z,99503.06
2022-08-27T16:14:32.442Z,99498.52
2022-08-27T16:17:06.033Z,99498.22
2022-08-27T16:19:41.633Z,99497.41
2022-08-27T16:22:16.327Z,99506.12
2022-08-27T16:24:50.233Z,99502.36
2022-08-27T16:27:23.813Z,99510.22
2022-08-27T16:29:57.470Z,99500.40
2022-08-27T16:32:32.938Z,99504.82
2022-08-27T16:35:08.888Z,99506.53
2022-08-27T16:37:42.153Z,99502.98
2022-08-27T16:40:16.391Z,99511.84
2022-08-27T16:42:51.470Z,99504.69
2022-08-27T16:45:26.314Z,99514.38
2022-08-27T16:48:16.998Z,99509.58
2022-08-27T16:50:50.533Z,99505.88
2022-08-27T16:53:24.591Z,99517.46
2022-08-27T16:55:58.286Z,99514.36
2022-08-27T16:58:32.489Z,99510.36
2022-08-27T17:01:09.141Z,99514.39
2022-08-27T17:04:07.352Z,99511.13
2022-08-27T17:06:23.770Z,99515.94
2022-08-27T17:08:59.905Z,99517.98
2022-08-27T17:11:34.677Z,99517.41
2022-08-27T17:14:08.736Z,99515.01
2022-08-27T17:16:43.484Z,99507.33
2022-08-27T17:19:18.928Z,99515.59
2022-08-27T17:21:53.956Z,99514.91
2022-08-27T17:24:27.842Z,99517.88
2022-08-27T17:27:04.432Z,99517.09
2022-08-27T17:29:38.048Z,99519.98
2022-08-27T17:32:11.999Z,99521.04
2022-08-27T17:34:45.644Z,99514.98
2022-08-27T17:37:19.234Z,99513.35
2022-08-27T17:39:53.403Z,99513.63
2022-08-27T17:42:27.028Z,99526.30
2022-08-27T17:45:01.160Z,99518.25
2022-08-27T17:47:35.203Z,99520.16
2022-08-27T17:50:11.270Z,99524.77
2022-08-27T17:52:45.000Z,99529.46
2022-08-27T17:55:18.909Z,99523.41
2022-08-27T17:57:52.098Z,99528.19
2022-08-27T18:00:26.173Z,99525.70
2022-08-27T18:02:59.872Z,99527.41
2022-08-27T18:05:33.102Z,99528.39
2022-08-27T18:08:07.267Z,99528.39
2022-08-27T18:10:41.421Z,99525.70
2022-08-27T18:13:15.719Z,99535.56
2022-08-27T18:15:50.385Z,99532.22
2022-08-27T18:18:23.984Z,99530.66
2022-08-27T18:20:59.426Z,99526.63
2022-08-27T18:23:33.240Z,99529.58
2022-08-27T18:26:08.164Z,99545.16
2022-08-27T18:28:42.079Z,99539.19
2022-08-27T18:31:17.884Z,99531.34
2022-08-27T18:33:51.396Z,99533.23
2022-08-27T18:36:25.518Z,99533.42
2022-08-27T18:38:59.570Z,99529.11
2022-08-27T18:41:34.050Z,99525.63
2022-08-27T18:44:17.213Z,99523.84
2022-08-27T18:46:44.195Z,99528.22
2022-08-27T18:49:17.704Z,99525.53
2022-08-27T18:51:52.797Z,99525.53
2022-08-27T18:54:28.708Z,99526.33
2022-08-27T18:57:05.424Z,99528.22
2022-08-27T18:59:38.880Z,99524.09
2022-08-27T19:04:44.903Z,99528.45
2022-08-27T19:07:18.593Z,99521.80
2022-08-27T19:09:52.187Z,99515.93
2022-08-27T19:12:26.036Z,99517.06
2022-08-27T19:14:59.644Z,99520.09
2022-08-27T19:17:36.564Z,99522.23
2022-08-27T19:20:11.737Z,99519.80
2022-08-27T19:22:45.353Z,99522.75
2022-08-27T19:25:20.038Z,99519.38
2022-08-27T19:27:55.523Z,99516.84
2022-08-27T19:30:29.208Z,99517.88
2022-08-27T19:33:04.294Z,99517.21
2022-08-27T19:35:39.622Z,99516.52
2022-08-27T19:38:15.032Z,99523.00
2022-08-27T19:40:48.629Z,99519.61
2022-08-27T19:43:22.249Z,99519.70
2022-08-27T19:45:56.874Z,99514.50
2022-08-27T19:48:30.458Z,99522.72
2022-08-27T19:51:04.159Z,99526.34
2022-08-27T19:53:38.429Z,99520.13
2022-08-27T19:56:13.871Z,99523.66
2022-08-27T19:58:47.935Z,99515.53
2022-08-27T20:01:25.896Z,99517.36
2022-08-27T20:03:59.527Z,99516.56
2022-08-27T20:06:34.785Z,99518.63
2022-08-27T20:09:10.406Z,99518.91
2022-08-27T20:11:46.016Z,99514.75
2022-08-27T20:14:20.509Z,99517.64
2022-08-27T20:16:54.027Z,99514.34
2022-08-27T20:19:28.938Z,99513.63
2022-08-27T20:22:02.853Z,99517.43
2022-08-27T20:24:37.941Z,99522.25
2022-08-27T20:27:11.588Z,99514.54
2022-08-27T20:29:45.097Z,99515.73
2022-08-27T20:32:20.644Z,99521.23
2022-08-27T20:34:54.560Z,99513.47
2022-08-27T20:37:28.162Z,99517.26
2022-08-27T20:40:01.752Z,99514.72
2022-08-27T20:42:36.009Z,99519.36
2022-08-27T20:45:12.516Z,99519.61
2022-08-27T20:47:48.817Z,99524.34
2022-08-27T20:50:23.431Z,99514.83
2022-08-27T20:52:57.116Z,99513.20
2022-08-27T20:55:31.063Z,99514.83
2022-08-27T20:58:22.066Z,99520.01
2022-08-27T21:00:56.750Z,99513.72
2022-08-27T21:03:31.924Z,99520.01
2022-08-27T21:06:08.048Z,99511.27
2022-08-27T21:08:46.761Z,99513.01
2022-08-27T21:11:21.353Z,99513.86
2022-08-27T21:13:56.703Z,99510.42
2022-08-27T21:16:30.983Z,99509.58
2022-08-27T21:19:04.499Z,99509.75
2022-08-27T21:21:37.909Z,99509.53
2022-08-27T21:24:11.650Z,99508.51
2022-08-27T21:26:46.227Z,99511.19
2022-08-27T21:29:21.741Z,99501.28
2022-08-27T21:31:55.506Z,99498.61
2022-08-27T21:34:30.666Z,99499.46
2022-08-27T21:37:05.046Z,99496.73
2022-08-27T21:39:39.117Z,99497.67
2022-08-27T21:42:13.458Z,99492.45
2022-08-27T21:44:47.948Z,99492.55
2022-08-27T21:47:21.911Z,99494.45
2022-08-27T21:49:56.811Z,99498.03
2022-08-27T21:52:30.898Z,99492.77
2022-08-27T21:55:05.112Z,99493.16
2022-08-27T21:57:38.757Z,99487.95
2022-08-27T22:00:19.308Z,99488.97
2022-08-27T22:02:53.784Z,99489.98
2022-08-27T22:05:28.937Z,99484.64
2022-08-27T22:08:06.349Z,99479.23
2022-08-27T22:10:40.850Z,99478.98
2022-08-27T22:13:14.677Z,99482.85
2022-08-27T22:15:50.933Z,99483.07
2022-08-27T22:18:27.085Z,99481.59
2022-08-27T22:21:06.325Z,99478.41
2022-08-27T22:23:42.238Z,99474.17
2022-08-27T22:26:15.495Z,99477.00
2022-08-27T22:28:49.016Z,99476.37
2022-08-27T22:31:23.184Z,99472.12
2022-08-27T22:33:56.834Z,99475.81
2022-08-27T22:36:30.727Z,99474.08
2022-08-27T22:39:04.193Z,99474.23
2022-08-27T22:41:37.658Z,99469.91
2022-08-27T22:44:12.958Z,99477.05
2022-08-27T22:46:46.659Z,99475.26
2022-08-27T22:49:20.352Z,99471.48
2022-08-27T22:51:56.383Z,99480.14
2022-08-27T22:54:30.391Z,99474.80
2022-08-27T22:57:03.850Z,99470.55
2022-08-27T22:59:37.342Z,99472.25
2022-08-27T23:02:13.262Z,99481.08
2022-08-27T23:04:55.587Z,99479.59
2022-08-27T23:07:22.126Z,99470.20
2022-08-27T23:09:55.705Z,99473.30
2022-08-27T23:12:29.926Z,99466.30
2022-08-27T23:15:06.463Z,99466.22
2022-08-27T23:17:40.464Z,99462.69
2022-08-27T23:20:15.371Z,99456.91
2022-08-27T23:22:49.057Z,99448.09
2022-08-27T23:25:43.316Z,99455.62
2022-08-27T23:28:17.800Z,99461.25
2022-08-27T23:30:51.963Z,99451.02
2022-08-27T23:33:25.535Z,99451.95
2022-08-27T23:35:58.910Z,99452.91
2022-08-27T23:38:32.823Z,99452.27
2022-08-27T23:41:08.117Z,99451.45
2022-08-27T23:43:41.818Z,99450.45
2022-08-27T23:46:16.129Z,99449.59
2022-08-27T23:48:49.616Z,99447.98
2022-08-27T23:51:23.683Z,99452.98
2022-08-27T23:53:57.513Z,99445.37
2022-08-27T23:56:31.227Z,99445.77
2022-08-27T23:59:05.327Z,99446.27
